sensor_id;sensor_type;location;lat;lon;timestamp;P1;durP1;ratioP1;P2;durP2;ratioP2
31596;SDS011;18201;50.978;7.034;2023-05-07T00:00:19;7.28;;;4.82;;
31596;SDS011;18201;50.978;7.034;2023-05-07T00:00:51;4.57;;;4.18;;
31596;SDS011;18201;50.978;7.034;2023-05-07T00:01:22;6.18;;;4.30;;
31596;SDS011;18201;50.978;7.034;2023-05-07T00:01:53;5.47;;;4.43;;
31596;SDS011;18201;50.978;7.034;2023-05-07T00:02:25;6.05;;;4.57;;
31596;SDS011;18201;50.978;7.034;2023-05-07T00:02:56;6.78;;;4.57;;
31596;SDS011;18201;50.978;7.034;2023-05-07T00:03:26;6.60;;;4.80;;
31596;SDS011;18201;50.978;7.034;2023-05-07T00:03:57;9.07;;;4.88;;
31596;SDS011;18201;50.978;7.034;2023-05-07T00:04:29;5.38;;;4.88;;
31596;SDS011;18201;50.978;7.034;2023-05-07T00:05:06;5.60;;;4.88;;
31596;SDS011;18201;50.978;7.034;2023-05-07T00:05:37;6.18;;;4.88;;
31596;SDS011;18201;50.978;7.034;2023-05-07T00:06:09;5.05;;;4.65;;
31596;SDS011;18201;50.978;7.034;2023-05-07T00:06:42;4.78;;;4.30;;
31596;SDS011;18201;50.978;7.034;2023-05-07T00:07:13;5.97;;;4.47;;
31596;SDS011;18201;50.978;7.034;2023-05-07T00:07:45;4.45;;;4.15;;
31596;SDS011;18201;50.978;7.034;2023-05-07T00:08:16;4.88;;;4.47;;
31596;SDS011;18201;50.978;7.034;2023-05-07T00:08:47;5.28;;;4.45;;
31596;SDS011;18201;50.978;7.034;2023-05-07T00:09:19;4.32;;;3.92;;
31596;SDS011;18201;50.978;7.034;2023-05-07T00:09:50;5.40;;;4.78;;
31596;SDS011;18201;50.978;7.034;2023-05-07T00:10:20;5.25;;;4.65;;
31596;SDS011;18201;50.978;7.034;2023-05-07T00:10:52;4.80;;;4.13;;
31596;SDS011;18201;50.978;7.034;2023-05-07T00:11:23;7.25;;;4.88;;
31596;SDS011;18201;50.978;7.034;2023-05-07T00:11:55;4.60;;;4.20;;
31596;SDS011;18201;50.978;7.034;2023-05-07T00:12:27;4.47;;;4.13;;
31596;SDS011;18201;50.978;7.034;2023-05-07T00:13:01;7.53;;;5.22;;
31596;SDS011;18201;50.978;7.034;2023-05-07T00:13:32;4.82;;;4.43;;
31596;SDS011;18201;50.978;7.034;2023-05-07T00:14:05;6.82;;;3.90;;
31596;SDS011;18201;50.978;7.034;2023-05-07T00:14:37;5.20;;;4.50;;
31596;SDS011;18201;50.978;7.034;2023-05-07T00:15:08;5.30;;;4.57;;
31596;SDS011;18201;50.978;7.034;2023-05-07T00:15:40;5.90;;;4.35;;
31596;SDS011;18201;50.978;7.034;2023-05-07T00:16:11;4.80;;;4.13;;
31596;SDS011;18201;50.978;7.034;2023-05-07T00:16:42;4.07;;;3.67;;
31596;SDS011;18201;50.978;7.034;2023-05-07T00:17:14;5.47;;;3.75;;
31596;SDS011;18201;50.978;7.034;2023-05-07T00:17:45;4.85;;;4.32;;
31596;SDS011;18201;50.978;7.034;2023-05-07T00:18:17;4.78;;;4.32;;
31596;SDS011;18201;50.978;7.034;2023-05-07T00:18:52;4.53;;;3.65;;
31596;SDS011;18201;50.978;7.034;2023-05-07T00:19:24;5.15;;;4.20;;
31596;SDS011;18201;50.978;7.034;2023-05-07T00:19:55;7.30;;;4.55;;
31596;SDS011;18201;50.978;7.034;2023-05-07T00:20:26;5.00;;;4.15;;
31596;SDS011;18201;50.978;7.034;2023-05-07T00:20:58;4.95;;;4.35;;
31596;SDS011;18201;50.978;7.034;2023-05-07T00:21:28;5.05;;;4.55;;
31596;SDS011;18201;50.978;7.034;2023-05-07T00:22:00;4.43;;;4.03;;
31596;SDS011;18201;50.978;7.034;2023-05-07T00:22:31;5.28;;;4.00;;
31596;SDS011;18201;50.978;7.034;2023-05-07T00:23:03;4.90;;;4.40;;
31596;SDS011;18201;50.978;7.034;2023-05-07T00:23:34;6.22;;;4.95;;
31596;SDS011;18201;50.978;7.034;2023-05-07T00:24:05;5.70;;;4.78;;
31596;SDS011;18201;50.978;7.034;2023-05-07T00:24:37;6.95;;;4.10;;
31596;SDS011;18201;50.978;7.034;2023-05-07T00:25:09;5.82;;;4.30;;
31596;SDS011;18201;50.978;7.034;2023-05-07T00:25:40;4.75;;;4.13;;
31596;SDS011;18201;50.978;7.034;2023-05-07T00:26:11;7.47;;;5.10;;
31596;SDS011;18201;50.978;7.034;2023-05-07T00:26:43;4.65;;;3.70;;
31596;SDS011;18201;50.978;7.034;2023-05-07T00:27:13;5.68;;;4.50;;
31596;SDS011;18201;50.978;7.034;2023-05-07T00:27:44;4.72;;;4.28;;
31596;SDS011;18201;50.978;7.034;2023-05-07T00:28:16;4.75;;;4.20;;
31596;SDS011;18201;50.978;7.034;2023-05-07T00:28:47;8.25;;;4.57;;
31596;SDS011;18201;50.978;7.034;2023-05-07T00:29:18;7.93;;;4.50;;
31596;SDS011;18201;50.978;7.034;2023-05-07T00:29:51;4.50;;;4.10;;
31596;SDS011;18201;50.978;7.034;2023-05-07T00:30:22;5.95;;;4.55;;
31596;SDS011;18201;50.978;7.034;2023-05-07T00:30:53;5.15;;;4.35;;
31596;SDS011;18201;50.978;7.034;2023-05-07T00:32:12;4.18;;;3.88;;
31596;SDS011;18201;50.978;7.034;2023-05-07T00:32:43;5.55;;;4.47;;
31596;SDS011;18201;50.978;7.034;2023-05-07T00:33:15;5.97;;;4.50;;
31596;SDS011;18201;50.978;7.034;2023-05-07T00:33:46;5.55;;;4.70;;
31596;SDS011;18201;50.978;7.034;2023-05-07T00:34:17;4.50;;;4.07;;
31596;SDS011;18201;50.978;7.034;2023-05-07T00:34:49;5.82;;;4.53;;
31596;SDS011;18201;50.978;7.034;2023-05-07T00:35:21;11.88;;;4.40;;
31596;SDS011;18201;50.978;7.034;2023-05-07T00:35:52;7.07;;;4.18;;
31596;SDS011;18201;50.978;7.034;2023-05-07T00:36:24;4.53;;;4.13;;
31596;SDS011;18201;50.978;7.034;2023-05-07T00:36:56;5.47;;;4.22;;
31596;SDS011;18201;50.978;7.034;2023-05-07T00:37:27;4.13;;;3.72;;
31596;SDS011;18201;50.978;7.034;2023-05-07T00:37:58;5.88;;;4.18;;
31596;SDS011;18201;50.978;7.034;2023-05-07T00:38:30;5.03;;;4.10;;
31596;SDS011;18201;50.978;7.034;2023-05-07T00:39:00;4.40;;;4.00;;
31596;SDS011;18201;50.978;7.034;2023-05-07T00:39:33;6.43;;;4.25;;
31596;SDS011;18201;50.978;7.034;2023-05-07T00:40:05;6.22;;;4.53;;
31596;SDS011;18201;50.978;7.034;2023-05-07T00:40:38;4.40;;;4.00;;
31596;SDS011;18201;50.978;7.034;2023-05-07T00:41:09;6.18;;;4.15;;
31596;SDS011;18201;50.978;7.034;2023-05-07T00:41:40;5.57;;;4.22;;
31596;SDS011;18201;50.978;7.034;2023-05-07T00:42:11;4.22;;;3.78;;
31596;SDS011;18201;50.978;7.034;2023-05-07T00:42:42;5.50;;;4.13;;
31596;SDS011;18201;50.978;7.034;2023-05-07T00:43:16;4.68;;;3.80;;
31596;SDS011;18201;50.978;7.034;2023-05-07T00:43:48;5.10;;;4.22;;
31596;SDS011;18201;50.978;7.034;2023-05-07T00:44:21;4.22;;;3.83;;
31596;SDS011;18201;50.978;7.034;2023-05-07T00:44:53;4.85;;;4.45;;
31596;SDS011;18201;50.978;7.034;2023-05-07T00:45:26;5.10;;;4.53;;
31596;SDS011;18201;50.978;7.034;2023-05-07T00:45:57;5.90;;;4.45;;
31596;SDS011;18201;50.978;7.034;2023-05-07T00:46:28;4.38;;;4.07;;
31596;SDS011;18201;50.978;7.034;2023-05-07T00:47:02;5.53;;;4.20;;
31596;SDS011;18201;50.978;7.034;2023-05-07T00:47:35;4.75;;;4.25;;
31596;SDS011;18201;50.978;7.034;2023-05-07T00:48:06;4.00;;;3.70;;
31596;SDS011;18201;50.978;7.034;2023-05-07T00:48:38;5.95;;;4.60;;
31596;SDS011;18201;50.978;7.034;2023-05-07T00:49:09;4.13;;;3.83;;
31596;SDS011;18201;50.978;7.034;2023-05-07T00:49:41;5.55;;;4.20;;
31596;SDS011;18201;50.978;7.034;2023-05-07T00:50:13;4.93;;;3.97;;
31596;SDS011;18201;50.978;7.034;2023-05-07T00:50:44;5.13;;;4.72;;
31596;SDS011;18201;50.978;7.034;2023-05-07T00:51:16;6.15;;;4.45;;
31596;SDS011;18201;50.978;7.034;2023-05-07T00:51:48;4.22;;;3.83;;
31596;SDS011;18201;50.978;7.034;2023-05-07T00:52:20;4.75;;;3.95;;
31596;SDS011;18201;50.978;7.034;2023-05-07T00:52:54;4.28;;;3.90;;
31596;SDS011;18201;50.978;7.034;2023-05-07T00:53:26;4.82;;;4.38;;
31596;SDS011;18201;50.978;7.034;2023-05-07T00:53:57;4.70;;;3.78;;
31596;SDS011;18201;50.978;7.034;2023-05-07T00:54:30;5.07;;;4.15;;
31596;SDS011;18201;50.978;7.034;2023-05-07T00:55:03;5.03;;;4.47;;
31596;SDS011;18201;50.978;7.034;2023-05-07T00:55:36;4.88;;;4.40;;
31596;SDS011;18201;50.978;7.034;2023-05-07T00:56:08;5.13;;;4.63;;
31596;SDS011;18201;50.978;7.034;2023-05-07T00:56:39;5.07;;;3.92;;
31596;SDS011;18201;50.978;7.034;2023-05-07T00:57:11;5.28;;;4.20;;
31596;SDS011;18201;50.978;7.034;2023-05-07T00:57:43;4.60;;;3.95;;
31596;SDS011;18201;50.978;7.034;2023-05-07T00:58:14;7.82;;;4.05;;
31596;SDS011;18201;50.978;7.034;2023-05-07T00:58:46;7.97;;;4.68;;
31596;SDS011;18201;50.978;7.034;2023-05-07T00:59:17;5.05;;;3.72;;
31596;SDS011;18201;50.978;7.034;2023-05-07T00:59:49;5.00;;;4.50;;
31596;SDS011;18201;50.978;7.034;2023-05-07T01:00:24;5.07;;;3.60;;
31596;SDS011;18201;50.978;7.034;2023-05-07T01:00:55;4.72;;;3.72;;
31596;SDS011;18201;50.978;7.034;2023-05-07T01:01:26;4.05;;;3.65;;
31596;SDS011;18201;50.978;7.034;2023-05-07T01:01:58;5.45;;;4.13;;
31596;SDS011;18201;50.978;7.034;2023-05-07T01:02:28;4.47;;;4.05;;
31596;SDS011;18201;50.978;7.034;2023-05-07T01:02:59;5.60;;;4.28;;
31596;SDS011;18201;50.978;7.034;2023-05-07T01:03:31;4.90;;;4.40;;
31596;SDS011;18201;50.978;7.034;2023-05-07T01:04:02;4.18;;;3.75;;
31596;SDS011;18201;50.978;7.034;2023-05-07T01:04:33;4.50;;;3.75;;
31596;SDS011;18201;50.978;7.034;2023-05-07T01:05:04;4.30;;;3.90;;
31596;SDS011;18201;50.978;7.034;2023-05-07T01:05:39;5.80;;;4.00;;
31596;SDS011;18201;50.978;7.034;2023-05-07T01:06:11;4.82;;;3.78;;
31596;SDS011;18201;50.978;7.034;2023-05-07T01:06:43;4.47;;;3.97;;
31596;SDS011;18201;50.978;7.034;2023-05-07T01:07:16;6.07;;;4.47;;
31596;SDS011;18201;50.978;7.034;2023-05-07T01:07:47;4.53;;;3.88;;
31596;SDS011;18201;50.978;7.034;2023-05-07T01:08:18;5.88;;;4.68;;
31596;SDS011;18201;50.978;7.034;2023-05-07T01:08:53;4.00;;;3.70;;
31596;SDS011;18201;50.978;7.034;2023-05-07T01:09:26;4.28;;;3.88;;
31596;SDS011;18201;50.978;7.034;2023-05-07T01:09:58;4.97;;;3.78;;
31596;SDS011;18201;50.978;7.034;2023-05-07T01:10:31;3.83;;;3.53;;
31596;SDS011;18201;50.978;7.034;2023-05-07T01:11:02;5.00;;;4.47;;
31596;SDS011;18201;50.978;7.034;2023-05-07T01:11:33;4.95;;;3.75;;
31596;SDS011;18201;50.978;7.034;2023-05-07T01:12:05;5.93;;;4.15;;
31596;SDS011;18201;50.978;7.034;2023-05-07T01:12:37;4.90;;;3.92;;
31596;SDS011;18201;50.978;7.034;2023-05-07T01:13:10;4.35;;;3.95;;
31596;SDS011;18201;50.978;7.034;2023-05-07T01:13:43;4.68;;;4.30;;
31596;SDS011;18201;50.978;7.034;2023-05-07T01:14:15;5.43;;;3.95;;
31596;SDS011;18201;50.978;7.034;2023-05-07T01:14:46;8.20;;;4.68;;
31596;SDS011;18201;50.978;7.034;2023-05-07T01:15:19;4.82;;;3.80;;
31596;SDS011;18201;50.978;7.034;2023-05-07T01:15:52;6.35;;;3.92;;
31596;SDS011;18201;50.978;7.034;2023-05-07T01:16:23;5.35;;;4.10;;
31596;SDS011;18201;50.978;7.034;2023-05-07T01:16:55;4.35;;;3.90;;
31596;SDS011;18201;50.978;7.034;2023-05-07T01:17:26;4.82;;;4.15;;
31596;SDS011;18201;50.978;7.034;2023-05-07T01:17:57;7.53;;;4.63;;
31596;SDS011;18201;50.978;7.034;2023-05-07T01:18:29;5.25;;;4.38;;
31596;SDS011;18201;50.978;7.034;2023-05-07T01:19:00;5.25;;;4.22;;
31596;SDS011;18201;50.978;7.034;2023-05-07T01:19:31;4.50;;;3.50;;
31596;SDS011;18201;50.978;7.034;2023-05-07T01:20:04;6.57;;;3.90;;
31596;SDS011;18201;50.978;7.034;2023-05-07T01:20:35;4.63;;;3.83;;
31596;SDS011;18201;50.978;7.034;2023-05-07T01:21:06;5.80;;;3.78;;
31596;SDS011;18201;50.978;7.034;2023-05-07T01:21:40;4.78;;;3.83;;
31596;SDS011;18201;50.978;7.034;2023-05-07T01:22:17;7.35;;;4.18;;
31596;SDS011;18201;50.978;7.034;2023-05-07T01:23:00;8.55;;;4.03;;
31596;SDS011;18201;50.978;7.034;2023-05-07T01:23:32;7.72;;;3.90;;
31596;SDS011;18201;50.978;7.034;2023-05-07T01:24:04;4.90;;;3.53;;
31596;SDS011;18201;50.978;7.034;2023-05-07T01:24:36;3.85;;;3.55;;
31596;SDS011;18201;50.978;7.034;2023-05-07T01:25:07;3.65;;;3.35;;
31596;SDS011;18201;50.978;7.034;2023-05-07T01:25:39;4.07;;;3.10;;
31596;SDS011;18201;50.978;7.034;2023-05-07T01:26:10;4.10;;;3.53;;
31596;SDS011;18201;50.978;7.034;2023-05-07T01:26:42;4.72;;;3.70;;
31596;SDS011;18201;50.978;7.034;2023-05-07T01:27:14;4.75;;;3.38;;
31596;SDS011;18201;50.978;7.034;2023-05-07T01:27:45;4.03;;;3.50;;
31596;SDS011;18201;50.978;7.034;2023-05-07T01:28:17;3.47;;;3.15;;
31596;SDS011;18201;50.978;7.034;2023-05-07T01:28:48;4.55;;;3.35;;
31596;SDS011;18201;50.978;7.034;2023-05-07T01:29:20;3.83;;;3.50;;
31596;SDS011;18201;50.978;7.034;2023-05-07T01:29:51;5.00;;;3.35;;
31596;SDS011;18201;50.978;7.034;2023-05-07T01:30:23;3.50;;;3.20;;
31596;SDS011;18201;50.978;7.034;2023-05-07T01:30:54;5.70;;;3.38;;
31596;SDS011;18201;50.978;7.034;2023-05-07T01:31:31;3.65;;;3.25;;
31596;SDS011;18201;50.978;7.034;2023-05-07T01:32:05;4.65;;;3.30;;
31596;SDS011;18201;50.978;7.034;2023-05-07T01:32:38;5.72;;;3.60;;
31596;SDS011;18201;50.978;7.034;2023-05-07T01:33:13;4.35;;;3.13;;
31596;SDS011;18201;50.978;7.034;2023-05-07T01:33:49;3.65;;;3.35;;
31596;SDS011;18201;50.978;7.034;2023-05-07T01:34:22;4.35;;;3.67;;
31596;SDS011;18201;50.978;7.034;2023-05-07T01:34:55;3.95;;;3.03;;
31596;SDS011;18201;50.978;7.034;2023-05-07T01:35:30;5.45;;;3.42;;
31596;SDS011;18201;50.978;7.034;2023-05-07T01:36:06;4.20;;;3.38;;
31596;SDS011;18201;50.978;7.034;2023-05-07T01:36:38;6.28;;;3.75;;
31596;SDS011;18201;50.978;7.034;2023-05-07T01:37:13;6.65;;;3.50;;
31596;SDS011;18201;50.978;7.034;2023-05-07T01:37:46;4.55;;;3.45;;
31596;SDS011;18201;50.978;7.034;2023-05-07T01:38:18;4.10;;;3.05;;
31596;SDS011;18201;50.978;7.034;2023-05-07T01:38:51;7.88;;;3.85;;
31596;SDS011;18201;50.978;7.034;2023-05-07T01:39:23;3.40;;;3.10;;
31596;SDS011;18201;50.978;7.034;2023-05-07T01:39:55;5.00;;;3.22;;
31596;SDS011;18201;50.978;7.034;2023-05-07T01:40:27;4.90;;;3.50;;
31596;SDS011;18201;50.978;7.034;2023-05-07T01:40:59;3.55;;;3.25;;
31596;SDS011;18201;50.978;7.034;2023-05-07T01:41:30;3.83;;;3.53;;
31596;SDS011;18201;50.978;7.034;2023-05-07T01:42:01;4.63;;;3.38;;
31596;SDS011;18201;50.978;7.034;2023-05-07T01:42:33;3.50;;;3.20;;
31596;SDS011;18201;50.978;7.034;2023-05-07T01:43:04;4.80;;;3.30;;
31596;SDS011;18201;50.978;7.034;2023-05-07T01:43:36;4.18;;;2.72;;
31596;SDS011;18201;50.978;7.034;2023-05-07T01:44:07;4.82;;;3.30;;
31596;SDS011;18201;50.978;7.034;2023-05-07T01:44:41;3.70;;;3.40;;
31596;SDS011;18201;50.978;7.034;2023-05-07T01:45:12;3.28;;;3.08;;
31596;SDS011;18201;50.978;7.034;2023-05-07T01:45:43;3.78;;;3.15;;
31596;SDS011;18201;50.978;7.034;2023-05-07T01:46:15;3.75;;;3.33;;
31596;SDS011;18201;50.978;7.034;2023-05-07T01:46:48;8.88;;;3.50;;
31596;SDS011;18201;50.978;7.034;2023-05-07T01:47:20;3.38;;;2.90;;
31596;SDS011;18201;50.978;7.034;2023-05-07T01:47:52;4.60;;;3.33;;
31596;SDS011;18201;50.978;7.034;2023-05-07T01:48:24;4.30;;;3.20;;
31596;SDS011;18201;50.978;7.034;2023-05-07T01:48:55;5.05;;;3.00;;
31596;SDS011;18201;50.978;7.034;2023-05-07T01:49:27;3.90;;;3.17;;
31596;SDS011;18201;50.978;7.034;2023-05-07T01:49:58;3.60;;;3.30;;
31596;SDS011;18201;50.978;7.034;2023-05-07T01:50:30;3.08;;;2.58;;
31596;SDS011;18201;50.978;7.034;2023-05-07T01:51:03;5.32;;;2.97;;
31596;SDS011;18201;50.978;7.034;2023-05-07T01:51:35;5.78;;;2.80;;
31596;SDS011;18201;50.978;7.034;2023-05-07T01:52:07;3.22;;;2.90;;
31596;SDS011;18201;50.978;7.034;2023-05-07T01:52:40;4.38;;;2.88;;
31596;SDS011;18201;50.978;7.034;2023-05-07T01:53:12;3.55;;;3.13;;
31596;SDS011;18201;50.978;7.034;2023-05-07T01:53:43;4.88;;;3.33;;
31596;SDS011;18201;50.978;7.034;2023-05-07T01:54:17;3.72;;;3.22;;
31596;SDS011;18201;50.978;7.034;2023-05-07T01:54:48;3.70;;;3.30;;
31596;SDS011;18201;50.978;7.034;2023-05-07T01:55:19;4.85;;;3.33;;
31596;SDS011;18201;50.978;7.034;2023-05-07T01:55:51;3.80;;;3.22;;
31596;SDS011;18201;50.978;7.034;2023-05-07T01:56:22;5.03;;;3.45;;
31596;SDS011;18201;50.978;7.034;2023-05-07T01:57:27;3.17;;;2.88;;
31596;SDS011;18201;50.978;7.034;2023-05-07T01:57:57;3.85;;;3.42;;
31596;SDS011;18201;50.978;7.034;2023-05-07T01:58:28;6.70;;;3.70;;
31596;SDS011;18201;50.978;7.034;2023-05-07T01:59:00;3.55;;;3.25;;
31596;SDS011;18201;50.978;7.034;2023-05-07T01:59:32;7.57;;;3.40;;
31596;SDS011;18201;50.978;7.034;2023-05-07T02:00:03;3.63;;;3.25;;
31596;SDS011;18201;50.978;7.034;2023-05-07T02:00:36;3.80;;;3.10;;
31596;SDS011;18201;50.978;7.034;2023-05-07T02:01:07;5.43;;;3.55;;
31596;SDS011;18201;50.978;7.034;2023-05-07T02:01:39;3.40;;;3.10;;
31596;SDS011;18201;50.978;7.034;2023-05-07T02:02:11;5.10;;;3.65;;
31596;SDS011;18201;50.978;7.034;2023-05-07T02:02:42;6.72;;;3.05;;
31596;SDS011;18201;50.978;7.034;2023-05-07T02:03:13;4.13;;;3.17;;
31596;SDS011;18201;50.978;7.034;2023-05-07T02:03:44;5.55;;;3.20;;
31596;SDS011;18201;50.978;7.034;2023-05-07T02:04:15;4.20;;;2.88;;
31596;SDS011;18201;50.978;7.034;2023-05-07T02:04:46;4.57;;;3.05;;
31596;SDS011;18201;50.978;7.034;2023-05-07T02:05:18;4.70;;;3.00;;
31596;SDS011;18201;50.978;7.034;2023-05-07T02:05:49;3.13;;;2.83;;
31596;SDS011;18201;50.978;7.034;2023-05-07T02:06:20;5.40;;;3.33;;
31596;SDS011;18201;50.978;7.034;2023-05-07T02:06:51;5.45;;;3.22;;
31596;SDS011;18201;50.978;7.034;2023-05-07T02:07:23;4.45;;;3.22;;
31596;SDS011;18201;50.978;7.034;2023-05-07T02:07:56;4.65;;;3.08;;
31596;SDS011;18201;50.978;7.034;2023-05-07T02:08:28;3.97;;;3.13;;
31596;SDS011;18201;50.978;7.034;2023-05-07T02:09:00;4.25;;;3.08;;
31596;SDS011;18201;50.978;7.034;2023-05-07T02:09:30;3.45;;;3.05;;
31596;SDS011;18201;50.978;7.034;2023-05-07T02:10:05;4.18;;;3.42;;
31596;SDS011;18201;50.978;7.034;2023-05-07T02:10:37;2.97;;;2.78;;
31596;SDS011;18201;50.978;7.034;2023-05-07T02:11:08;7.00;;;3.15;;
31596;SDS011;18201;50.978;7.034;2023-05-07T02:11:39;3.90;;;2.22;;
31596;SDS011;18201;50.978;7.034;2023-05-07T02:12:11;3.47;;;3.15;;
31596;SDS011;18201;50.978;7.034;2023-05-07T02:12:42;3.80;;;2.60;;
31596;SDS011;18201;50.978;7.034;2023-05-07T02:13:13;5.28;;;3.38;;
31596;SDS011;18201;50.978;7.034;2023-05-07T02:13:45;3.15;;;2.85;;
31596;SDS011;18201;50.978;7.034;2023-05-07T02:14:16;3.67;;;2.88;;
31596;SDS011;18201;50.978;7.034;2023-05-07T02:14:48;3.30;;;3.00;;
31596;SDS011;18201;50.978;7.034;2023-05-07T02:15:18;4.15;;;3.08;;
31596;SDS011;18201;50.978;7.034;2023-05-07T02:15:49;3.38;;;3.08;;
31596;SDS011;18201;50.978;7.034;2023-05-07T02:16:21;6.22;;;3.58;;
31596;SDS011;18201;50.978;7.034;2023-05-07T02:16:53;3.92;;;3.03;;
31596;SDS011;18201;50.978;7.034;2023-05-07T02:17:24;5.60;;;2.97;;
31596;SDS011;18201;50.978;7.034;2023-05-07T02:17:59;4.30;;;3.25;;
31596;SDS011;18201;50.978;7.034;2023-05-07T02:18:31;4.10;;;3.70;;
31596;SDS011;18201;50.978;7.034;2023-05-07T02:19:02;6.22;;;3.60;;
31596;SDS011;18201;50.978;7.034;2023-05-07T02:19:34;4.32;;;2.78;;
31596;SDS011;18201;50.978;7.034;2023-05-07T02:20:05;4.30;;;3.45;;
31596;SDS011;18201;50.978;7.034;2023-05-07T02:20:43;5.75;;;3.10;;
31596;SDS011;18201;50.978;7.034;2023-05-07T02:21:15;3.65;;;3.35;;
31596;SDS011;18201;50.978;7.034;2023-05-07T02:21:47;4.22;;;3.13;;
31596;SDS011;18201;50.978;7.034;2023-05-07T02:22:18;3.25;;;2.95;;
31596;SDS011;18201;50.978;7.034;2023-05-07T02:22:49;3.38;;;3.08;;
31596;SDS011;18201;50.978;7.034;2023-05-07T02:23:19;4.72;;;3.63;;
31596;SDS011;18201;50.978;7.034;2023-05-07T02:23:53;4.55;;;3.20;;
31596;SDS011;18201;50.978;7.034;2023-05-07T02:24:24;4.75;;;3.20;;
31596;SDS011;18201;50.978;7.034;2023-05-07T02:24:56;5.68;;;3.50;;
31596;SDS011;18201;50.978;7.034;2023-05-07T02:25:28;4.60;;;3.30;;
31596;SDS011;18201;50.978;7.034;2023-05-07T02:26:00;5.43;;;3.45;;
31596;SDS011;18201;50.978;7.034;2023-05-07T02:26:30;3.30;;;3.00;;
31596;SDS011;18201;50.978;7.034;2023-05-07T02:27:02;4.90;;;3.80;;
31596;SDS011;18201;50.978;7.034;2023-05-07T02:27:33;5.57;;;2.80;;
31596;SDS011;18201;50.978;7.034;2023-05-07T02:28:04;3.55;;;3.25;;
31596;SDS011;18201;50.978;7.034;2023-05-07T02:28:40;5.10;;;4.20;;
31596;SDS011;18201;50.978;7.034;2023-05-07T02:29:12;7.05;;;4.60;;
31596;SDS011;18201;50.978;7.034;2023-05-07T02:29:43;6.63;;;4.70;;
31596;SDS011;18201;50.978;7.034;2023-05-07T02:30:14;7.07;;;4.32;;
31596;SDS011;18201;50.978;7.034;2023-05-07T02:30:45;8.98;;;4.63;;
31596;SDS011;18201;50.978;7.034;2023-05-07T02:31:17;7.15;;;4.90;;
31596;SDS011;18201;50.978;7.034;2023-05-07T02:31:48;12.98;;;5.57;;
31596;SDS011;18201;50.978;7.034;2023-05-07T02:32:20;9.23;;;5.05;;
31596;SDS011;18201;50.978;7.034;2023-05-07T02:32:53;6.55;;;4.55;;
31596;SDS011;18201;50.978;7.034;2023-05-07T02:33:25;7.10;;;5.32;;
31596;SDS011;18201;50.978;7.034;2023-05-07T02:33:56;8.90;;;5.50;;
31596;SDS011;18201;50.978;7.034;2023-05-07T02:34:27;10.68;;;5.68;;
31596;SDS011;18201;50.978;7.034;2023-05-07T02:34:59;11.00;;;6.18;;
31596;SDS011;18201;50.978;7.034;2023-05-07T02:35:29;8.57;;;5.68;;
31596;SDS011;18201;50.978;7.034;2023-05-07T02:36:07;8.85;;;5.75;;
31596;SDS011;18201;50.978;7.034;2023-05-07T02:36:39;9.20;;;6.18;;
31596;SDS011;18201;50.978;7.034;2023-05-07T02:37:10;9.25;;;5.57;;
31596;SDS011;18201;50.978;7.034;2023-05-07T02:37:41;10.38;;;5.93;;
31596;SDS011;18201;50.978;7.034;2023-05-07T02:38:12;10.00;;;6.07;;
31596;SDS011;18201;50.978;7.034;2023-05-07T02:38:44;10.45;;;6.00;;
31596;SDS011;18201;50.978;7.034;2023-05-07T02:39:16;11.25;;;6.15;;
31596;SDS011;18201;50.978;7.034;2023-05-07T02:39:47;10.63;;;6.25;;
31596;SDS011;18201;50.978;7.034;2023-05-07T02:40:19;10.23;;;6.70;;
31596;SDS011;18201;50.978;7.034;2023-05-07T02:40:50;12.20;;;7.07;;
31596;SDS011;18201;50.978;7.034;2023-05-07T02:41:25;12.25;;;6.68;;
31596;SDS011;18201;50.978;7.034;2023-05-07T02:41:58;14.55;;;6.45;;
31596;SDS011;18201;50.978;7.034;2023-05-07T02:42:29;9.25;;;7.18;;
31596;SDS011;18201;50.978;7.034;2023-05-07T02:43:00;8.30;;;5.90;;
31596;SDS011;18201;50.978;7.034;2023-05-07T02:43:31;12.52;;;6.55;;
31596;SDS011;18201;50.978;7.034;2023-05-07T02:44:03;10.88;;;6.18;;
31596;SDS011;18201;50.978;7.034;2023-05-07T02:44:34;14.27;;;6.60;;
31596;SDS011;18201;50.978;7.034;2023-05-07T02:45:06;9.68;;;6.30;;
31596;SDS011;18201;50.978;7.034;2023-05-07T02:45:38;13.88;;;7.53;;
31596;SDS011;18201;50.978;7.034;2023-05-07T02:46:09;9.20;;;5.55;;
31596;SDS011;18201;50.978;7.034;2023-05-07T02:46:40;10.75;;;6.30;;
31596;SDS011;18201;50.978;7.034;2023-05-07T02:47:13;11.07;;;5.90;;
31596;SDS011;18201;50.978;7.034;2023-05-07T02:47:45;11.27;;;5.63;;
31596;SDS011;18201;50.978;7.034;2023-05-07T02:48:16;8.82;;;5.57;;
31596;SDS011;18201;50.978;7.034;2023-05-07T02:48:47;9.63;;;5.80;;
31596;SDS011;18201;50.978;7.034;2023-05-07T02:49:19;9.27;;;5.13;;
31596;SDS011;18201;50.978;7.034;2023-05-07T02:49:50;7.20;;;4.75;;
31596;SDS011;18201;50.978;7.034;2023-05-07T02:50:21;7.85;;;5.10;;
31596;SDS011;18201;50.978;7.034;2023-05-07T02:50:52;8.65;;;5.18;;
31596;SDS011;18201;50.978;7.034;2023-05-07T02:51:25;6.93;;;4.22;;
31596;SDS011;18201;50.978;7.034;2023-05-07T02:51:57;4.97;;;4.28;;
31596;SDS011;18201;50.978;7.034;2023-05-07T02:52:27;9.00;;;4.85;;
31596;SDS011;18201;50.978;7.034;2023-05-07T02:52:59;8.73;;;4.30;;
31596;SDS011;18201;50.978;7.034;2023-05-07T02:53:30;5.43;;;4.35;;
31596;SDS011;18201;50.978;7.034;2023-05-07T02:54:01;5.80;;;4.40;;
31596;SDS011;18201;50.978;7.034;2023-05-07T02:54:35;6.50;;;3.60;;
31596;SDS011;18201;50.978;7.034;2023-05-07T02:55:06;5.22;;;3.88;;
31596;SDS011;18201;50.978;7.034;2023-05-07T02:55:37;5.95;;;4.47;;
31596;SDS011;18201;50.978;7.034;2023-05-07T02:56:08;4.90;;;3.90;;
31596;SDS011;18201;50.978;7.034;2023-05-07T02:56:39;5.45;;;4.13;;
31596;SDS011;18201;50.978;7.034;2023-05-07T02:57:11;5.65;;;3.78;;
31596;SDS011;18201;50.978;7.034;2023-05-07T02:57:42;4.05;;;3.67;;
31596;SDS011;18201;50.978;7.034;2023-05-07T02:58:12;6.97;;;3.75;;
31596;SDS011;18201;50.978;7.034;2023-05-07T02:58:43;5.35;;;3.88;;
31596;SDS011;18201;50.978;7.034;2023-05-07T02:59:15;4.68;;;3.97;;
31596;SDS011;18201;50.978;7.034;2023-05-07T02:59:46;5.47;;;3.95;;
31596;SDS011;18201;50.978;7.034;2023-05-07T03:00:17;4.53;;;4.05;;
31596;SDS011;18201;50.978;7.034;2023-05-07T03:00:50;5.15;;;3.90;;
31596;SDS011;18201;50.978;7.034;2023-05-07T03:01:22;6.63;;;4.43;;
31596;SDS011;18201;50.978;7.034;2023-05-07T03:01:52;6.55;;;4.05;;
31596;SDS011;18201;50.978;7.034;2023-05-07T03:02:23;5.80;;;4.10;;
31596;SDS011;18201;50.978;7.034;2023-05-07T03:02:55;4.80;;;3.67;;
31596;SDS011;18201;50.978;7.034;2023-05-07T03:03:26;7.57;;;4.10;;
31596;SDS011;18201;50.978;7.034;2023-05-07T03:03:57;7.28;;;4.45;;
31596;SDS011;18201;50.978;7.034;2023-05-07T03:04:29;5.50;;;3.90;;
31596;SDS011;18201;50.978;7.034;2023-05-07T03:04:59;5.75;;;3.90;;
31596;SDS011;18201;50.978;7.034;2023-05-07T03:05:30;4.25;;;3.78;;
31596;SDS011;18201;50.978;7.034;2023-05-07T03:06:02;4.10;;;3.70;;
31596;SDS011;18201;50.978;7.034;2023-05-07T03:06:33;7.88;;;4.57;;
31596;SDS011;18201;50.978;7.034;2023-05-07T03:07:04;6.60;;;4.03;;
31596;SDS011;18201;50.978;7.034;2023-05-07T03:07:36;9.55;;;5.20;;
31596;SDS011;18201;50.978;7.034;2023-05-07T03:08:07;16.83;;;7.43;;
31596;SDS011;18201;50.978;7.034;2023-05-07T03:08:39;24.05;;;9.35;;
31596;SDS011;18201;50.978;7.034;2023-05-07T03:09:11;39.15;;;13.32;;
31596;SDS011;18201;50.978;7.034;2023-05-07T03:09:43;36.90;;;14.32;;
31596;SDS011;18201;50.978;7.034;2023-05-07T03:10:14;33.38;;;13.23;;
31596;SDS011;18201;50.978;7.034;2023-05-07T03:10:46;42.90;;;14.80;;
31596;SDS011;18201;50.978;7.034;2023-05-07T03:11:17;46.75;;;14.70;;
31596;SDS011;18201;50.978;7.034;2023-05-07T03:11:48;42.10;;;16.10;;
31596;SDS011;18201;50.978;7.034;2023-05-07T03:12:20;58.47;;;17.52;;
31596;SDS011;18201;50.978;7.034;2023-05-07T03:12:51;45.33;;;17.02;;